sensor_id;sensor_type;location;lat;lon;timestamp;pressure;altitude;pressure_sealevel;temperature;humidity
68891;BME280;55932;48.702;8.884;2023-07-08T00:00:20;96270;;;19;49
68891;BME280;55932;48.702;8.884;2023-07-08T00:10:50;96250;;;18.7;49.5
68891;BME280;55932;48.702;8.884;2023-07-08T00:13:24;96260;;;18.7;49.5
68891;BME280;55932;48.702;8.884;2023-07-08T00:15:55;96260;;;18.6;49.5
68891;BME280;55932;48.702;8.884;2023-07-08T00:18:35;96260;;;18.6;49.5
68891;BME280;55932;48.702;8.884;2023-07-08T00:20:47;96250;;;18.5;49.5
68891;BME280;55932;48.702;8.884;2023-07-08T00:23:17;96250;;;18.5;49.5
68891;BME280;55932;48.702;8.884;2023-07-08T00:25:48;96250;;;18.5;49.5
68891;BME280;55932;48.702;8.884;2023-07-08T00:28:15;96250;;;18.3;50
68891;BME280;55932;48.702;8.884;2023-07-08T00:30:37;96250;;;18.3;50
68891;BME280;55932;48.702;8.884;2023-07-08T00:33:07;96250;;;18.2;50
68891;BME280;55932;48.702;8.884;2023-07-08T00:40:27;96250;;;17.9;50
68891;BME280;55932;48.702;8.884;2023-07-08T00:42:58;96250;;;17.8;50
68891;BME280;55932;48.702;8.884;2023-07-08T00:45:38;96260;;;17.7;50.5
68891;BME280;55932;48.702;8.884;2023-07-08T00:48:00;96260;;;17.7;50
68891;BME280;55932;48.702;8.884;2023-07-08T00:50:28;96260;;;17.7;50
68891;BME280;55932;48.702;8.884;2023-07-08T00:53:31;96260;;;17.7;50
68891;BME280;55932;48.702;8.884;2023-07-08T01:00:51;96260;;;17.4;50.5
68891;BME280;55932;48.702;8.884;2023-07-08T01:03:21;96250;;;17.3;50.5
68891;BME280;55932;48.702;8.884;2023-07-08T01:08:12;96250;;;17.1;50.5
68891;BME280;55932;48.702;8.884;2023-07-08T01:10:43;96250;;;17;51
68891;BME280;55932;48.702;8.884;2023-07-08T01:15:54;96260;;;16.9;51
68891;BME280;55932;48.702;8.884;2023-07-08T01:20:56;96250;;;17;50.5
68891;BME280;55932;48.702;8.884;2023-07-08T01:23:26;96250;;;17.1;50.5
68891;BME280;55932;48.702;8.884;2023-07-08T01:25:56;96250;;;17.1;50.5
68891;BME280;55932;48.702;8.884;2023-07-08T01:30:55;96250;;;17;50.5
68891;BME280;55932;48.702;8.884;2023-07-08T01:33:19;96250;;;16.9;50.5
68891;BME280;55932;48.702;8.884;2023-07-08T01:35:46;96250;;;16.8;50.5
68891;BME280;55932;48.702;8.884;2023-07-08T01:40:36;96250;;;16.8;50.5
68891;BME280;55932;48.702;8.884;2023-07-08T01:43:06;96250;;;16.8;50.5
68891;BME280;55932;48.702;8.884;2023-07-08T01:45:38;96250;;;16.8;50.5
68891;BME280;55932;48.702;8.884;2023-07-08T01:53:09;96250;;;16.9;50.5
68891;BME280;55932;48.702;8.884;2023-07-08T01:55:39;96250;;;17;50.5
68891;BME280;55932;48.702;8.884;2023-07-08T01:58:09;96240;;;17.1;50
68891;BME280;55932;48.702;8.884;2023-07-08T02:00:40;96240;;;17.2;50
68891;BME280;55932;48.702;8.884;2023-07-08T02:03:10;96240;;;17.3;50
68891;BME280;55932;48.702;8.884;2023-07-08T02:05:41;96250;;;17.4;50
68891;BME280;55932;48.702;8.884;2023-07-08T02:08:23;96240;;;17.5;50
68891;BME280;55932;48.702;8.884;2023-07-08T02:10:55;96240;;;17.6;50
68891;BME280;55932;48.702;8.884;2023-07-08T02:13:23;96240;;;17.7;49.5
68891;BME280;55932;48.702;8.884;2023-07-08T02:15:53;96250;;;17.8;49.5
68891;BME280;55932;48.702;8.884;2023-07-08T02:18:33;96250;;;17.9;49.5
68891;BME280;55932;48.702;8.884;2023-07-08T02:21:02;96240;;;18;49.5
68891;BME280;55932;48.702;8.884;2023-07-08T02:23:24;96240;;;18.1;49.5
68891;BME280;55932;48.702;8.884;2023-07-08T02:25:54;96250;;;18.2;49.5
68891;BME280;55932;48.702;8.884;2023-07-08T02:28:23;96250;;;18.4;49
68891;BME280;55932;48.702;8.884;2023-07-08T02:30:53;96250;;;18.5;49
68891;BME280;55932;48.702;8.884;2023-07-08T02:33:23;96250;;;18.5;49
68891;BME280;55932;48.702;8.884;2023-07-08T02:35:54;96250;;;18.5;49
68891;BME280;55932;48.702;8.884;2023-07-08T02:43:14;96270;;;18.3;49
68891;BME280;55932;48.702;8.884;2023-07-08T02:45:45;96270;;;18.1;49.5
68891;BME280;55932;48.702;8.884;2023-07-08T02:48:15;96280;;;17.8;49.5
68891;BME280;55932;48.702;8.884;2023-07-08T02:55:57;96270;;;17.8;50
68891;BME280;55932;48.702;8.884;2023-07-08T02:58:29;96280;;;18;50
68891;BME280;55932;48.702;8.884;2023-07-08T03:03:17;96270;;;18.1;49.5
68891;BME280;55932;48.702;8.884;2023-07-08T03:13:19;96270;;;17.9;50
68891;BME280;55932;48.702;8.884;2023-07-08T03:15:50;96280;;;17.7;50
68891;BME280;55932;48.702;8.884;2023-07-08T03:18:21;96270;;;17.6;50
68891;BME280;55932;48.702;8.884;2023-07-08T03:20:51;96260;;;17.6;50
68891;BME280;55932;48.702;8.884;2023-07-08T03:23:33;96270;;;17.5;50
68891;BME280;55932;48.702;8.884;2023-07-08T03:26:03;96270;;;17.4;50
68891;BME280;55932;48.702;8.884;2023-07-08T03:28:33;96260;;;17.1;50.5
68891;BME280;55932;48.702;8.884;2023-07-08T03:30:52;96260;;;16.9;50.5
68891;BME280;55932;48.702;8.884;2023-07-08T03:38:24;96260;;;16.2;51
68891;BME280;55932;48.702;8.884;2023-07-08T03:40:54;96260;;;16.1;51.5
68891;BME280;55932;48.702;8.884;2023-07-08T03:43:28;96270;;;16;51.5
68891;BME280;55932;48.702;8.884;2023-07-08T03:45:55;96270;;;15.9;51.5
68891;BME280;55932;48.702;8.884;2023-07-08T03:48:26;96270;;;15.9;51.5
68891;BME280;55932;48.702;8.884;2023-07-08T03:50:56;96270;;;15.9;51.5
68891;BME280;55932;48.702;8.884;2023-07-08T03:53:38;96270;;;16;51
68891;BME280;55932;48.702;8.884;2023-07-08T03:56:10;96270;;;16.1;51
68891;BME280;55932;48.702;8.884;2023-07-08T03:58:38;96280;;;16.2;51
68891;BME280;55932;48.702;8.884;2023-07-08T04:05:58;96270;;;16.5;50.5
68891;BME280;55932;48.702;8.884;2023-07-08T04:08:29;96280;;;16.7;50
68891;BME280;55932;48.702;8.884;2023-07-08T04:11:00;96280;;;16.9;50
68891;BME280;55932;48.702;8.884;2023-07-08T04:13:30;96280;;;17;50
68891;BME280;55932;48.702;8.884;2023-07-08T04:18:42;96280;;;17.1;50
68891;BME280;55932;48.702;8.884;2023-07-08T04:21:12;96280;;;17.3;49.5
68891;BME280;55932;48.702;8.884;2023-07-08T04:23:42;96280;;;17.5;49.5
68891;BME280;55932;48.702;8.884;2023-07-08T04:26:13;96280;;;17.7;49.5
68891;BME280;55932;48.702;8.884;2023-07-08T04:31:02;96270;;;17.9;49.5
68891;BME280;55932;48.702;8.884;2023-07-08T04:33:33;96270;;;18;49
68891;BME280;55932;48.702;8.884;2023-07-08T04:36:04;96270;;;18.1;49
68891;BME280;55932;48.702;8.884;2023-07-08T04:38:34;96270;;;18.3;49
68891;BME280;55932;48.702;8.884;2023-07-08T04:41:04;96270;;;18.4;49
68891;BME280;55932;48.702;8.884;2023-07-08T04:43:35;96270;;;18.5;48.5
68891;BME280;55932;48.702;8.884;2023-07-08T04:46:08;96270;;;18.5;48.5
68891;BME280;55932;48.702;8.884;2023-07-08T04:48:47;96270;;;18.4;49
68891;BME280;55932;48.702;8.884;2023-07-08T04:51:17;96280;;;18.2;49
68891;BME280;55932;48.702;8.884;2023-07-08T04:53:47;96290;;;18.1;49
68891;BME280;55932;48.702;8.884;2023-07-08T05:01:29;96290;;;18.4;49
68891;BME280;55932;48.702;8.884;2023-07-08T05:04:11;96300;;;18.7;49
68891;BME280;55932;48.702;8.884;2023-07-08T05:08:49;96310;;;19.2;48.5
68891;BME280;55932;48.702;8.884;2023-07-08T05:11:19;96300;;;19.4;48.5
68891;BME280;55932;48.702;8.884;2023-07-08T05:16:32;96300;;;19.9;48
68891;BME280;55932;48.702;8.884;2023-07-08T05:21:32;96310;;;20.9;47
68891;BME280;55932;48.702;8.884;2023-07-08T05:24:03;96310;;;21;47
68891;BME280;55932;48.702;8.884;2023-07-08T05:26:33;96310;;;21.2;47
68891;BME280;55932;48.702;8.884;2023-07-08T05:29:13;96300;;;21.2;47
68891;BME280;55932;48.702;8.884;2023-07-08T05:33:54;96310;;;21.3;47.5
68891;BME280;55932;48.702;8.884;2023-07-08T05:36:24;96310;;;21.3;47.5
68891;BME280;55932;48.702;8.884;2023-07-08T05:38:54;96320;;;21.4;47.5
68891;BME280;55932;48.702;8.884;2023-07-08T05:41:13;96320;;;21.4;47
68891;BME280;55932;48.702;8.884;2023-07-08T05:48:45;96320;;;21.2;48
68891;BME280;55932;48.702;8.884;2023-07-08T05:51:15;96330;;;21.1;48
68891;BME280;55932;48.702;8.884;2023-07-08T05:53:46;96330;;;21.2;48
68891;BME280;55932;48.702;8.884;2023-07-08T05:56:16;96320;;;21.4;48
68891;BME280;55932;48.702;8.884;2023-07-08T05:58:58;96320;;;21.5;47.5
68891;BME280;55932;48.702;8.884;2023-07-08T06:03:59;96320;;;21.8;47.5
68891;BME280;55932;48.702;8.884;2023-07-08T06:06:29;96310;;;22;47.5
68891;BME280;55932;48.702;8.884;2023-07-08T06:08:59;96300;;;22.2;47
68891;BME280;55932;48.702;8.884;2023-07-08T06:11:29;96300;;;22.4;47
68891;BME280;55932;48.702;8.884;2023-07-08T06:16:18;96290;;;22.7;47
68891;BME280;55932;48.702;8.884;2023-07-08T06:18:49;96310;;;22.8;47
68891;BME280;55932;48.702;8.884;2023-07-08T06:21:20;96310;;;22.9;47
68891;BME280;55932;48.702;8.884;2023-07-08T06:23:50;96320;;;22.9;47
68891;BME280;55932;48.702;8.884;2023-07-08T06:26:20;96330;;;23;47
68891;BME280;55932;48.702;8.884;2023-07-08T06:31:21;96340;;;23.3;46.5
68891;BME280;55932;48.702;8.884;2023-07-08T06:39:13;96350;;;23.9;46.5
68891;BME280;55932;48.702;8.884;2023-07-08T06:41:44;96350;;;24.1;46
68891;BME280;55932;48.702;8.884;2023-07-08T06:44:04;96350;;;24.1;46
68891;BME280;55932;48.702;8.884;2023-07-08T06:49:05;96350;;;24.1;46.5
68891;BME280;55932;48.702;8.884;2023-07-08T06:51:35;96350;;;24.1;46.5
68891;BME280;55932;48.702;8.884;2023-07-08T06:54:05;96350;;;24.2;46.5
68891;BME280;55932;48.702;8.884;2023-07-08T06:56:35;96360;;;24.2;46.5
68891;BME280;55932;48.702;8.884;2023-07-08T07:01:24;96360;;;24.2;46.5
68891;BME280;55932;48.702;8.884;2023-07-08T07:03:55;96360;;;24.3;46.5
68891;BME280;55932;48.702;8.884;2023-07-08T07:06:25;96370;;;24.4;46.5
68891;BME280;55932;48.702;8.884;2023-07-08T07:08:56;96370;;;24.4;46.5
68891;BME280;55932;48.702;8.884;2023-07-08T07:11:26;96370;;;24.6;46.5
68891;BME280;55932;48.702;8.884;2023-07-08T07:13:56;96360;;;24.8;46
68891;BME280;55932;48.702;8.884;2023-07-08T07:16:27;96370;;;24.9;46
68891;BME280;55932;48.702;8.884;2023-07-08T07:18:58;96370;;;24.8;46
68891;BME280;55932;48.702;8.884;2023-07-08T07:21:28;96370;;;24.7;46.5
68891;BME280;55932;48.702;8.884;2023-07-08T07:23:59;96370;;;24.7;46.5
68891;BME280;55932;48.702;8.884;2023-07-08T07:31:30;96370;;;25;46.5
68891;BME280;55932;48.702;8.884;2023-07-08T07:41:56;96380;;;26.6;45
68891;BME280;55932;48.702;8.884;2023-07-08T07:44:44;96380;;;26.6;45
68891;BME280;55932;48.702;8.884;2023-07-08T07:46:44;96380;;;27.1;45
68891;BME280;55932;48.702;8.884;2023-07-08T07:49:14;96380;;;28.6;44
68891;BME280;55932;48.702;8.884;2023-07-08T07:51:45;96370;;;28.8;44
68891;BME280;55932;48.702;8.884;2023-07-08T07:54:04;96380;;;27.7;45
68891;BME280;55932;48.702;8.884;2023-07-08T07:56:42;96380;;;27;45.5
68891;BME280;55932;48.702;8.884;2023-07-08T08:04:06;96380;;;27;45.5
68891;BME280;55932;48.702;8.884;2023-07-08T08:09:07;96380;;;31;42.5
68891;BME280;55932;48.702;8.884;2023-07-08T08:11:37;96380;;;30.7;42
68891;BME280;55932;48.702;8.884;2023-07-08T08:16:38;96390;;;30;42.5
68891;BME280;55932;48.702;8.884;2023-07-08T08:19:09;96380;;;28.7;44
68891;BME280;55932;48.702;8.884;2023-07-08T08:21:39;96380;;;28;45
68891;BME280;55932;48.702;8.884;2023-07-08T08:24:10;96380;;;29.6;44.5
68891;BME280;55932;48.702;8.884;2023-07-08T08:31:42;96370;;;31.5;43
68891;BME280;55932;48.702;8.884;2023-07-08T08:34:12;96370;;;32.3;42
68891;BME280;55932;48.702;8.884;2023-07-08T08:36:43;96370;;;33.9;40.5
68891;BME280;55932;48.702;8.884;2023-07-08T08:39:13;96380;;;34.8;39
68891;BME280;55932;48.702;8.884;2023-07-08T08:41:44;96380;;;35.3;39
68891;BME280;55932;48.702;8.884;2023-07-08T08:44:15;96380;;;32.7;41
68891;BME280;55932;48.702;8.884;2023-07-08T08:46:58;96380;;;30.8;43
68891;BME280;55932;48.702;8.884;2023-07-08T08:49:27;96380;;;30.2;44
68891;BME280;55932;48.702;8.884;2023-07-08T08:51:56;96390;;;30;44.5
68891;BME280;55932;48.702;8.884;2023-07-08T09:04:48;96400;;;30.5;44
68891;BME280;55932;48.702;8.884;2023-07-08T09:07:20;96390;;;29.8;44.5
68891;BME280;55932;48.702;8.884;2023-07-08T09:12:03;96380;;;29.4;45
68891;BME280;55932;48.702;8.884;2023-07-08T09:14:31;96380;;;29.1;45.5
68891;BME280;55932;48.702;8.884;2023-07-08T09:17:31;96380;;;29.1;46
68891;BME280;55932;48.702;8.884;2023-07-08T09:26:50;96380;;;29.4;45.5
68891;BME280;55932;48.702;8.884;2023-07-08T09:29:21;96380;;;31.9;43.5
68891;BME280;55932;48.702;8.884;2023-07-08T09:31:51;96370;;;33.5;41.5
68891;BME280;55932;48.702;8.884;2023-07-08T09:34:37;96370;;;34.5;40
68891;BME280;55932;48.702;8.884;2023-07-08T09:37:03;96370;;;34.7;39.5
68891;BME280;55932;48.702;8.884;2023-07-08T09:39:35;96380;;;34.6;40
68891;BME280;55932;48.702;8.884;2023-07-08T09:41:52;96380;;;34.2;40.5
68891;BME280;55932;48.702;8.884;2023-07-08T09:44:24;96380;;;34.5;41
68891;BME280;55932;48.702;8.884;2023-07-08T09:51:54;96380;;;35.6;40
68891;BME280;55932;48.702;8.884;2023-07-08T09:54:25;96380;;;35.6;39.5
68891;BME280;55932;48.702;8.884;2023-07-08T09:56:58;96390;;;35.1;40.5
68891;BME280;55932;48.702;8.884;2023-07-08T09:59:30;96390;;;35.1;41
68891;BME280;55932;48.702;8.884;2023-07-08T10:04:39;96380;;;34.3;41.5
68891;BME280;55932;48.702;8.884;2023-07-08T10:07:09;96380;;;33.8;42
68891;BME280;55932;48.702;8.884;2023-07-08T10:09:39;96380;;;34.3;42
68891;BME280;55932;48.702;8.884;2023-07-08T10:12:20;96380;;;35;41.5
68891;BME280;55932;48.702;8.884;2023-07-08T10:14:52;96380;;;35.4;41
68891;BME280;55932;48.702;8.884;2023-07-08T10:17:21;96380;;;35.7;40.5
68891;BME280;55932;48.702;8.884;2023-07-08T10:19:50;96370;;;35;41
68891;BME280;55932;48.702;8.884;2023-07-08T10:22:29;96370;;;35;41.5
68891;BME280;55932;48.702;8.884;2023-07-08T10:24:44;96360;;;35.3;41.5
68891;BME280;55932;48.702;8.884;2023-07-08T10:29:32;96360;;;35.4;40.5
68891;BME280;55932;48.702;8.884;2023-07-08T10:32:04;96370;;;35.3;41
68891;BME280;55932;48.702;8.884;2023-07-08T10:34:41;96370;;;35.6;41
68891;BME280;55932;48.702;8.884;2023-07-08T10:42:06;96370;;;35.7;41
68891;BME280;55932;48.702;8.884;2023-07-08T10:44:35;96370;;;35.8;41
68891;BME280;55932;48.702;8.884;2023-07-08T10:47:10;96360;;;35.9;41
68891;BME280;55932;48.702;8.884;2023-07-08T10:50:07;96370;;;36.2;41
68891;BME280;55932;48.702;8.884;2023-07-08T10:54:53;96360;;;35.5;41.5
68891;BME280;55932;48.702;8.884;2023-07-08T10:57:35;96360;;;35.1;42
68891;BME280;55932;48.702;8.884;2023-07-08T10:59:50;96350;;;35.7;41.5
68891;BME280;55932;48.702;8.884;2023-07-08T11:02:22;96350;;;36.1;41
68891;BME280;55932;48.702;8.884;2023-07-08T11:15:21;96350;;;35.8;41
68891;BME280;55932;48.702;8.884;2023-07-08T11:17:40;96350;;;36.3;40.5
68891;BME280;55932;48.702;8.884;2023-07-08T11:19:53;96350;;;36.6;40
68891;BME280;55932;48.702;8.884;2023-07-08T11:22:18;96360;;;35.9;40.5
68891;BME280;55932;48.702;8.884;2023-07-08T11:24:49;96360;;;35.6;41
68891;BME280;55932;48.702;8.884;2023-07-08T11:27:20;96360;;;36.3;41
68891;BME280;55932;48.702;8.884;2023-07-08T11:29:53;96360;;;36.2;40.5
68891;BME280;55932;48.702;8.884;2023-07-08T11:44:41;96340;;;36.9;40
68891;BME280;55932;48.702;8.884;2023-07-08T11:47:13;96330;;;37.6;39.5
68891;BME280;55932;48.702;8.884;2023-07-08T11:49:41;96330;;;37.6;39
68891;BME280;55932;48.702;8.884;2023-07-08T11:55:14;96330;;;37;40
68891;BME280;55932;48.702;8.884;2023-07-08T11:57:37;96330;;;36.8;40
68891;BME280;55932;48.702;8.884;2023-07-08T12:00:24;96320;;;36.7;40
68891;BME280;55932;48.702;8.884;2023-07-08T12:02:47;96320;;;37.4;39.5
68891;BME280;55932;48.702;8.884;2023-07-08T12:07:44;96320;;;38.5;38.5
68891;BME280;55932;48.702;8.884;2023-07-08T12:10:11;96310;;;38.9;38.5
68891;BME280;55932;48.702;8.884;2023-07-08T12:15:28;96320;;;39.1;38.5
68891;BME280;55932;48.702;8.884;2023-07-08T12:17:40;96320;;;39.5;38
68891;BME280;55932;48.702;8.884;2023-07-08T12:22:30;96320;;;39.6;38
68891;BME280;55932;48.702;8.884;2023-07-08T12:25:00;96320;;;38.8;39
68891;BME280;55932;48.702;8.884;2023-07-08T12:27:30;96310;;;37.2;40.5
68891;BME280;55932;48.702;8.884;2023-07-08T12:30:00;96320;;;34.9;42.5
68891;BME280;55932;48.702;8.884;2023-07-08T12:34:49;96310;;;35.7;42
68891;BME280;55932;48.702;8.884;2023-07-08T12:37:20;96310;;;37;40.5
68891;BME280;55932;48.702;8.884;2023-07-08T12:40:13;96310;;;38.1;39
68891;BME280;55932;48.702;8.884;2023-07-08T12:45:15;96310;;;38.5;39
68891;BME280;55932;48.702;8.884;2023-07-08T12:47:45;96310;;;38.3;39
68891;BME280;55932;48.702;8.884;2023-07-08T12:50:25;96310;;;38.7;38.5
68891;BME280;55932;48.702;8.884;2023-07-08T12:55:17;96310;;;39.4;38
68891;BME280;55932;48.702;8.884;2023-07-08T12:57:51;96310;;;39.6;38
68891;BME280;55932;48.702;8.884;2023-07-08T13:02:47;96310;;;38.4;39
68891;BME280;55932;48.702;8.884;2023-07-08T13:07:40;96300;;;37.9;39.5
68891;BME280;55932;48.702;8.884;2023-07-08T13:10:16;96300;;;38.6;38.5
68891;BME280;55932;48.702;8.884;2023-07-08T13:12:38;96310;;;38.5;38.5
68891;BME280;55932;48.702;8.884;2023-07-08T13:15:10;96310;;;38.7;38.5
68891;BME280;55932;48.702;8.884;2023-07-08T13:17:47;96300;;;39.4;38
68891;BME280;55932;48.702;8.884;2023-07-08T13:37:52;96300;;;36.5;40
68891;BME280;55932;48.702;8.884;2023-07-08T13:40:31;96300;;;35.2;41
68891;BME280;55932;48.702;8.884;2023-07-08T13:43:02;96300;;;34.4;42
68891;BME280;55932;48.702;8.884;2023-07-08T13:45:43;96300;;;33.8;42.5
68891;BME280;55932;48.702;8.884;2023-07-08T13:47:58;96290;;;33.2;43
68891;BME280;55932;48.702;8.884;2023-07-08T13:50:16;96290;;;32.8;43
68891;BME280;55932;48.702;8.884;2023-07-08T13:55:25;96300;;;32.2;43.5
68891;BME280;55932;48.702;8.884;2023-07-08T13:57:58;96290;;;31.9;43.5
68891;BME280;55932;48.702;8.884;2023-07-08T14:00:28;96290;;;31.6;44
68891;BME280;55932;48.702;8.884;2023-07-08T14:02:57;96300;;;31.5;44
68891;BME280;55932;48.702;8.884;2023-07-08T14:05:16;96300;;;31.5;44
68891;BME280;55932;48.702;8.884;2023-07-08T14:07:46;96300;;;31.6;43.5
68891;BME280;55932;48.702;8.884;2023-07-08T14:10:16;96300;;;31.7;43.5
68891;BME280;55932;48.702;8.884;2023-07-08T14:12:37;96300;;;32.6;42.5
68891;BME280;55932;48.702;8.884;2023-07-08T14:17:38;96300;;;35.3;39.5
68891;BME280;55932;48.702;8.884;2023-07-08T14:25:09;96290;;;33.5;41
68891;BME280;55932;48.702;8.884;2023-07-08T14:27:39;96290;;;35.6;39
68891;BME280;55932;48.702;8.884;2023-07-08T14:30:10;96290;;;37.2;37.5
68891;BME280;55932;48.702;8.884;2023-07-08T14:32:40;96290;;;38.2;36
68891;BME280;55932;48.702;8.884;2023-07-08T14:40:26;96290;;;40;34.5
68891;BME280;55932;48.702;8.884;2023-07-08T14:43:02;96290;;;39.9;34.5
68891;BME280;55932;48.702;8.884;2023-07-08T14:45:22;96290;;;39.9;35
68891;BME280;55932;48.702;8.884;2023-07-08T14:47:52;96280;;;39.9;34.5
68891;BME280;55932;48.702;8.884;2023-07-08T14:55:44;96280;;;39.7;35
68891;BME280;55932;48.702;8.884;2023-07-08T14:58:17;96280;;;40.1;34
68891;BME280;55932;48.702;8.884;2023-07-08T15:00:36;96280;;;40.3;34
68891;BME280;55932;48.702;8.884;2023-07-08T15:03:07;96280;;;40;34
68891;BME280;55932;48.702;8.884;2023-07-08T15:08:08;96290;;;35.3;39
68891;BME280;55932;48.702;8.884;2023-07-08T15:10:38;96290;;;36.2;38
68891;BME280;55932;48.702;8.884;2023-07-08T15:13:09;96290;;;37.1;37
68891;BME280;55932;48.702;8.884;2023-07-08T15:15:39;96290;;;36.1;38
68891;BME280;55932;48.702;8.884;2023-07-08T15:18:12;96290;;;34.2;40
68891;BME280;55932;48.702;8.884;2023-07-08T15:20:28;96290;;;33.1;41
68891;BME280;55932;48.702;8.884;2023-07-08T15:22:59;96290;;;32.5;41.5
68891;BME280;55932;48.702;8.884;2023-07-08T15:25:29;96300;;;32.1;42
68891;BME280;55932;48.702;8.884;2023-07-08T15:27:49;96290;;;31.8;42.5
68891;BME280;55932;48.702;8.884;2023-07-08T15:30:21;96290;;;33.3;40.5
68891;BME280;55932;48.702;8.884;2023-07-08T15:32:49;96290;;;35.9;38
68891;BME280;55932;48.702;8.884;2023-07-08T15:40:21;96280;;;35.8;37.5
68891;BME280;55932;48.702;8.884;2023-07-08T15:42:52;96280;;;33.9;39.5
68891;BME280;55932;48.702;8.884;2023-07-08T15:48:04;96280;;;32.9;40.5
68891;BME280;55932;48.702;8.884;2023-07-08T15:50:55;96280;;;34.5;39
68891;BME280;55932;48.702;8.884;2023-07-08T15:53:16;96280;;;36;37
68891;BME280;55932;48.702;8.884;2023-07-08T15:55:56;96280;;;36.2;36.5
68891;BME280;55932;48.702;8.884;2023-07-08T15:58:36;96280;;;35;38
68891;BME280;55932;48.702;8.884;2023-07-08T16:00:48;96280;;;33.2;39.5
68891;BME280;55932;48.702;8.884;2023-07-08T16:03:23;96280;;;32.9;40
68891;BME280;55932;48.702;8.884;2023-07-08T16:05:59;96280;;;32.4;41
68891;BME280;55932;48.702;8.884;2023-07-08T16:08:20;96280;;;31.7;41.5
68891;BME280;55932;48.702;8.884;2023-07-08T16:10:39;96280;;;31.1;42
68891;BME280;55932;48.702;8.884;2023-07-08T16:13:10;96280;;;30.7;42.5
68891;BME280;55932;48.702;8.884;2023-07-08T16:15:48;96280;;;30.4;43
68891;BME280;55932;48.702;8.884;2023-07-08T16:25:51;96280;;;29.8;43.5
68891;BME280;55932;48.702;8.884;2023-07-08T16:28:54;96280;;;29.7;43.5
68891;BME280;55932;48.702;8.884;2023-07-08T16:33:12;96280;;;29.3;43.5
68891;BME280;55932;48.702;8.884;2023-07-08T16:35:42;96280;;;29.2;43.5
68891;BME280;55932;48.702;8.884;2023-07-08T16:38:22;96280;;;29.5;43.5
68891;BME280;55932;48.702;8.884;2023-07-08T16:43:02;96270;;;31.1;41.5
68891;BME280;55932;48.702;8.884;2023-07-08T16:45:33;96270;;;31.3;41
68891;BME280;55932;48.702;8.884;2023-07-08T16:48:03;96280;;;30.7;41.5
68891;BME280;55932;48.702;8.884;2023-07-08T16:50:33;96270;;;30.7;41.5
68891;BME280;55932;48.702;8.884;2023-07-08T16:53:08;96270;;;32.7;39
68891;BME280;55932;48.702;8.884;2023-07-08T17:00:36;96270;;;31;40.5
68891;BME280;55932;48.702;8.884;2023-07-08T17:03:07;96270;;;30.7;41
68891;BME280;55932;48.702;8.884;2023-07-08T17:08:31;96260;;;30.7;41
68891;BME280;55932;48.702;8.884;2023-07-08T17:11:00;96270;;;31;41
68891;BME280;55932;48.702;8.884;2023-07-08T17:15:53;96270;;;31.4;41
68891;BME280;55932;48.702;8.884;2023-07-08T17:18:34;96270;;;31.4;41
68891;BME280;55932;48.702;8.884;2023-07-08T17:23:21;96270;;;31;41.5
68891;BME280;55932;48.702;8.884;2023-07-08T17:28:35;96280;;;31;41.5
68891;BME280;55932;48.702;8.884;2023-07-08T17:31:06;96270;;;31;41.5
68891;BME280;55932;48.702;8.884;2023-07-08T17:33:35;96270;;;31;41.5
68891;BME280;55932;48.702;8.884;2023-07-08T17:38:40;96270;;;31;41.5
68891;BME280;55932;48.702;8.884;2023-07-08T17:40:54;96270;;;31.1;41.5
68891;BME280;55932;48.702;8.884;2023-07-08T17:43:25;96270;;;31.1;41.5
68891;BME280;55932;48.702;8.884;2023-07-08T17:45:54;96280;;;31;41.5
68891;BME280;55932;48.702;8.884;2023-07-08T17:48:26;96290;;;31;41.5
68891;BME280;55932;48.702;8.884;2023-07-08T17:50:44;96280;;;30.6;42
68891;BME280;55932;48.702;8.884;2023-07-08T17:53:14;96290;;;30.3;42.5
68891;BME280;55932;48.702;8.884;2023-07-08T17:58:15;96300;;;29.5;43
68891;BME280;55932;48.702;8.884;2023-07-08T18:08:18;96290;;;28.9;43.5
68891;BME280;55932;48.702;8.884;2023-07-08T18:10:48;96300;;;28.7;44
68891;BME280;55932;48.702;8.884;2023-07-08T18:16:21;96300;;;28.3;44
68891;BME280;55932;48.702;8.884;2023-07-08T18:18:42;96310;;;28.2;44
68891;BME280;55932;48.702;8.884;2023-07-08T18:21:01;96310;;;28.1;44
68891;BME280;55932;48.702;8.884;2023-07-08T18:23:31;96310;;;27.9;44.5
68891;BME280;55932;48.702;8.884;2023-07-08T18:26:01;96320;;;27.8;44.5
68891;BME280;55932;48.702;8.884;2023-07-08T18:28:31;96320;;;27.6;44.5
68891;BME280;55932;48.702;8.884;2023-07-08T18:31:15;96320;;;27.4;44.5
68891;BME280;55932;48.702;8.884;2023-07-08T18:33:44;96330;;;27.3;44.5
68891;BME280;55932;48.702;8.884;2023-07-08T18:36:15;96330;;;27.2;44.5
68891;BME280;55932;48.702;8.884;2023-07-08T18:38:34;96330;;;27;45
68891;BME280;55932;48.702;8.884;2023-07-08T18:41:16;96330;;;26.8;45
68891;BME280;55932;48.702;8.884;2023-07-08T18:43:34;96340;;;26.7;45
68891;BME280;55932;48.702;8.884;2023-07-08T18:49:04;96340;;;26.6;45
68891;BME280;55932;48.702;8.884;2023-07-08T18:53:46;96350;;;26.7;44.5
68891;BME280;55932;48.702;8.884;2023-07-08T18:56:17;96350;;;26.7;44.5
68891;BME280;55932;48.702;8.884;2023-07-08T19:01:10;96350;;;26.7;44.5
68891;BME280;55932;48.702;8.884;2023-07-08T19:03:38;96360;;;26.6;44.5
68891;BME280;55932;48.702;8.884;2023-07-08T19:06:08;96360;;;26.5;44.5
68891;BME280;55932;48.702;8.884;2023-07-08T19:08:37;96360;;;26.3;45
68891;BME280;55932;48.702;8.884;2023-07-08T19:11:18;96360;;;26.2;45
68891;BME280;55932;48.702;8.884;2023-07-08T19:13:48;96350;;;25.9;45
68891;BME280;55932;48.702;8.884;2023-07-08T19:16:10;96360;;;25.7;45.5
68891;BME280;55932;48.702;8.884;2023-07-08T19:18:38;96360;;;25.5;45.5
68891;BME280;55932;48.702;8.884;2023-07-08T19:21:10;96360;;;25.4;45.5
68891;BME280;55932;48.702;8.884;2023-07-08T19:23:27;96360;;;25.3;45.5
68891;BME280;55932;48.702;8.884;2023-07-08T19:25:58;96350;;;25.1;45.5
68891;BME280;55932;48.702;8.884;2023-07-08T19:28:29;96360;;;25;46
68891;BME280;55932;48.702;8.884;2023-07-08T19:30:59;96360;;;24.8;46
68891;BME280;55932;48.702;8.884;2023-07-08T19:33:29;96370;;;24.7;46
68891;BME280;55932;48.702;8.884;2023-07-08T19:36:01;96360;;;24.5;46
68891;BME280;55932;48.702;8.884;2023-07-08T19:43:32;96370;;;24.3;46
68891;BME280;55932;48.702;8.884;2023-07-08T19:46:23;96370;;;24.3;46
68891;BME280;55932;48.702;8.884;2023-07-08T19:48:44;96380;;;24.2;46